sensor_id;sensor_type;location;lat;lon;timestamp;P1;durP1;ratioP1;P2;durP2;ratioP2
27758;SDS011;15148;48.972;12.794;2023-04-25T00:04:21;2.75;;;2.55;;
27758;SDS011;15148;48.972;12.794;2023-04-25T00:09:24;4.07;;;2.97;;
27758;SDS011;15148;48.972;12.794;2023-04-25T00:14:26;2.80;;;2.60;;
27758;SDS011;15148;48.972;12.794;2023-04-25T00:19:28;4.07;;;2.83;;
27758;SDS011;15148;48.972;12.794;2023-04-25T00:24:30;2.83;;;2.60;;
27758;SDS011;15148;48.972;12.794;2023-04-25T00:29:32;3.30;;;3.00;;
27758;SDS011;15148;48.972;12.794;2023-04-25T00:34:35;2.95;;;2.65;;
27758;SDS011;15148;48.972;12.794;2023-04-25T00:39:37;5.15;;;3.28;;
27758;SDS011;15148;48.972;12.794;2023-04-25T00:44:39;3.47;;;3.17;;
27758;SDS011;15148;48.972;12.794;2023-04-25T00:49:41;3.67;;;2.92;;
27758;SDS011;15148;48.972;12.794;2023-04-25T00:54:43;5.40;;;2.80;;
27758;SDS011;15148;48.972;12.794;2023-04-25T00:59:45;3.20;;;2.90;;
27758;SDS011;15148;48.972;12.794;2023-04-25T01:04:48;2.85;;;2.60;;
27758;SDS011;15148;48.972;12.794;2023-04-25T01:09:53;5.22;;;3.03;;
27758;SDS011;15148;48.972;12.794;2023-04-25T01:14:55;3.65;;;2.75;;
27758;SDS011;15148;48.972;12.794;2023-04-25T01:19:56;5.47;;;3.05;;
27758;SDS011;15148;48.972;12.794;2023-04-25T01:24:59;3.10;;;2.78;;
27758;SDS011;15148;48.972;12.794;2023-04-25T01:30:02;2.78;;;2.58;;
27758;SDS011;15148;48.972;12.794;2023-04-25T01:35:06;3.88;;;2.80;;
27758;SDS011;15148;48.972;12.794;2023-04-25T01:40:11;4.47;;;3.00;;
27758;SDS011;15148;48.972;12.794;2023-04-25T01:45:13;5.10;;;3.00;;
27758;SDS011;15148;48.972;12.794;2023-04-25T01:50:18;3.00;;;2.80;;
27758;SDS011;15148;48.972;12.794;2023-04-25T01:55:21;3.78;;;2.88;;
27758;SDS011;15148;48.972;12.794;2023-04-25T02:00:31;3.33;;;2.63;;
27758;SDS011;15148;48.972;12.794;2023-04-25T02:05:34;3.15;;;2.92;;
27758;SDS011;15148;48.972;12.794;2023-04-25T02:10:39;3.13;;;2.80;;
27758;SDS011;15148;48.972;12.794;2023-04-25T02:16:04;3.40;;;2.72;;
27758;SDS011;15148;48.972;12.794;2023-04-25T02:21:06;3.95;;;2.60;;
27758;SDS011;15148;48.972;12.794;2023-04-25T02:26:08;3.60;;;2.28;;
27758;SDS011;15148;48.972;12.794;2023-04-25T02:31:10;2.60;;;2.40;;
27758;SDS011;15148;48.972;12.794;2023-04-25T02:36:11;4.63;;;2.70;;
27758;SDS011;15148;48.972;12.794;2023-04-25T02:41:15;4.03;;;2.55;;
27758;SDS011;15148;48.972;12.794;2023-04-25T02:46:17;3.75;;;3.10;;
27758;SDS011;15148;48.972;12.794;2023-04-25T02:51:33;3.10;;;2.90;;
27758;SDS011;15148;48.972;12.794;2023-04-25T02:56:35;4.35;;;3.33;;
27758;SDS011;15148;48.972;12.794;2023-04-25T03:01:41;4.60;;;2.75;;
27758;SDS011;15148;48.972;12.794;2023-04-25T03:06:43;3.00;;;2.70;;
27758;SDS011;15148;48.972;12.794;2023-04-25T03:11:45;3.03;;;2.72;;
27758;SDS011;15148;48.972;12.794;2023-04-25T03:16:47;2.90;;;2.60;;
27758;SDS011;15148;48.972;12.794;2023-04-25T03:21:51;3.80;;;2.72;;
27758;SDS011;15148;48.972;12.794;2023-04-25T03:26:53;4.03;;;3.40;;
27758;SDS011;15148;48.972;12.794;2023-04-25T03:31:55;3.28;;;3.03;;
27758;SDS011;15148;48.972;12.794;2023-04-25T03:36:56;3.88;;;3.10;;
27758;SDS011;15148;48.972;12.794;2023-04-25T03:41:58;3.92;;;3.25;;
27758;SDS011;15148;48.972;12.794;2023-04-25T03:47:02;7.00;;;3.40;;
27758;SDS011;15148;48.972;12.794;2023-04-25T03:52:05;2.97;;;2.78;;
27758;SDS011;15148;48.972;12.794;2023-04-25T03:57:10;5.63;;;3.97;;
27758;SDS011;15148;48.972;12.794;2023-04-25T04:02:13;3.67;;;3.38;;
27758;SDS011;15148;48.972;12.794;2023-04-25T04:07:15;3.80;;;3.50;;
27758;SDS011;15148;48.972;12.794;2023-04-25T04:12:20;3.53;;;3.22;;
27758;SDS011;15148;48.972;12.794;2023-04-25T04:17:22;4.18;;;3.40;;
27758;SDS011;15148;48.972;12.794;2023-04-25T04:22:25;5.75;;;3.20;;
27758;SDS011;15148;48.972;12.794;2023-04-25T04:27:31;3.60;;;3.28;;
27758;SDS011;15148;48.972;12.794;2023-04-25T04:32:54;3.85;;;3.47;;
27758;SDS011;15148;48.972;12.794;2023-04-25T04:37:57;4.40;;;3.90;;
27758;SDS011;15148;48.972;12.794;2023-04-25T04:43:03;4.80;;;3.80;;
27758;SDS011;15148;48.972;12.794;2023-04-25T04:48:07;5.15;;;4.50;;
27758;SDS011;15148;48.972;12.794;2023-04-25T04:53:30;4.57;;;4.18;;
27758;SDS011;15148;48.972;12.794;2023-04-25T04:58:52;5.40;;;4.40;;
27758;SDS011;15148;48.972;12.794;2023-04-25T05:04:17;4.50;;;4.10;;
27758;SDS011;15148;48.972;12.794;2023-04-25T05:09:21;8.32;;;4.40;;
27758;SDS011;15148;48.972;12.794;2023-04-25T05:14:40;4.85;;;3.88;;
27758;SDS011;15148;48.972;12.794;2023-04-25T05:20:10;5.55;;;4.70;;
27758;SDS011;15148;48.972;12.794;2023-04-25T05:25:31;4.55;;;4.05;;
27758;SDS011;15148;48.972;12.794;2023-04-25T05:30:59;4.28;;;3.88;;
27758;SDS011;15148;48.972;12.794;2023-04-25T05:36:13;4.82;;;4.35;;
27758;SDS011;15148;48.972;12.794;2023-04-25T05:41:16;6.03;;;5.05;;
27758;SDS011;15148;48.972;12.794;2023-04-25T05:46:38;7.93;;;6.53;;
27758;SDS011;15148;48.972;12.794;2023-04-25T05:51:52;10.77;;;9.68;;
27758;SDS011;15148;48.972;12.794;2023-04-25T05:57:05;7.57;;;5.88;;
27758;SDS011;15148;48.972;12.794;2023-04-25T06:02:07;8.50;;;5.68;;
27758;SDS011;15148;48.972;12.794;2023-04-25T06:07:11;6.30;;;5.70;;
27758;SDS011;15148;48.972;12.794;2023-04-25T06:12:14;6.15;;;5.55;;
27758;SDS011;15148;48.972;12.794;2023-04-25T06:17:16;13.10;;;11.63;;
27758;SDS011;15148;48.972;12.794;2023-04-25T06:22:18;7.53;;;5.45;;
27758;SDS011;15148;48.972;12.794;2023-04-25T06:27:20;5.22;;;4.75;;
27758;SDS011;15148;48.972;12.794;2023-04-25T06:32:22;5.50;;;4.93;;
27758;SDS011;15148;48.972;12.794;2023-04-25T06:37:24;5.65;;;4.85;;
27758;SDS011;15148;48.972;12.794;2023-04-25T06:42:26;7.35;;;6.03;;
27758;SDS011;15148;48.972;12.794;2023-04-25T06:47:33;8.05;;;5.30;;
27758;SDS011;15148;48.972;12.794;2023-04-25T06:52:36;7.00;;;5.95;;
27758;SDS011;15148;48.972;12.794;2023-04-25T06:57:38;9.80;;;7.38;;
27758;SDS011;15148;48.972;12.794;2023-04-25T07:03:08;6.35;;;5.00;;
27758;SDS011;15148;48.972;12.794;2023-04-25T07:08:11;6.75;;;5.18;;
27758;SDS011;15148;48.972;12.794;2023-04-25T07:13:13;5.32;;;4.80;;
27758;SDS011;15148;48.972;12.794;2023-04-25T07:18:15;4.40;;;4.00;;
27758;SDS011;15148;48.972;12.794;2023-04-25T07:23:18;5.15;;;4.65;;
27758;SDS011;15148;48.972;12.794;2023-04-25T07:28:20;4.78;;;4.30;;
27758;SDS011;15148;48.972;12.794;2023-04-25T07:33:22;5.15;;;4.00;;
27758;SDS011;15148;48.972;12.794;2023-04-25T07:38:24;5.00;;;4.38;;
27758;SDS011;15148;48.972;12.794;2023-04-25T07:43:26;5.30;;;4.65;;
27758;SDS011;15148;48.972;12.794;2023-04-25T07:48:32;5.38;;;4.88;;
27758;SDS011;15148;48.972;12.794;2023-04-25T07:53:33;6.10;;;5.13;;
27758;SDS011;15148;48.972;12.794;2023-04-25T07:58:43;5.32;;;4.82;;
27758;SDS011;15148;48.972;12.794;2023-04-25T08:03:48;6.40;;;5.32;;
27758;SDS011;15148;48.972;12.794;2023-04-25T08:08:57;5.45;;;4.88;;
27758;SDS011;15148;48.972;12.794;2023-04-25T08:14:07;5.90;;;5.13;;
27758;SDS011;15148;48.972;12.794;2023-04-25T08:19:10;7.20;;;4.45;;
27758;SDS011;15148;48.972;12.794;2023-04-25T08:24:12;4.65;;;4.25;;
27758;SDS011;15148;48.972;12.794;2023-04-25T08:29:15;6.03;;;4.60;;
27758;SDS011;15148;48.972;12.794;2023-04-25T08:34:18;5.20;;;4.32;;
27758;SDS011;15148;48.972;12.794;2023-04-25T08:39:23;4.70;;;4.00;;
27758;SDS011;15148;48.972;12.794;2023-04-25T08:44:45;5.18;;;4.45;;
27758;SDS011;15148;48.972;12.794;2023-04-25T08:49:49;4.53;;;4.10;;
27758;SDS011;15148;48.972;12.794;2023-04-25T08:54:56;6.13;;;4.25;;
27758;SDS011;15148;48.972;12.794;2023-04-25T09:00:01;4.82;;;4.32;;
27758;SDS011;15148;48.972;12.794;2023-04-25T09:05:07;4.97;;;4.07;;
27758;SDS011;15148;48.972;12.794;2023-04-25T09:10:11;7.82;;;3.13;;
27758;SDS011;15148;48.972;12.794;2023-04-25T09:15:13;3.53;;;2.92;;
27758;SDS011;15148;48.972;12.794;2023-04-25T09:21:05;3.63;;;3.20;;
27758;SDS011;15148;48.972;12.794;2023-04-25T09:31:22;3.20;;;2.80;;
27758;SDS011;15148;48.972;12.794;2023-04-25T09:36:29;3.80;;;3.22;;
27758;SDS011;15148;48.972;12.794;2023-04-25T09:41:52;5.03;;;3.42;;
27758;SDS011;15148;48.972;12.794;2023-04-25T09:52:00;3.28;;;2.97;;
27758;SDS011;15148;48.972;12.794;2023-04-25T09:57:16;6.60;;;5.38;;
27758;SDS011;15148;48.972;12.794;2023-04-25T10:02:23;4.30;;;3.22;;
27758;SDS011;15148;48.972;12.794;2023-04-25T10:07:30;4.60;;;3.55;;
27758;SDS011;15148;48.972;12.794;2023-04-25T10:12:35;5.05;;;4.55;;
27758;SDS011;15148;48.972;12.794;2023-04-25T10:17:37;3.20;;;2.95;;
27758;SDS011;15148;48.972;12.794;2023-04-25T10:22:44;3.58;;;2.38;;
27758;SDS011;15148;48.972;12.794;2023-04-25T10:27:47;2.67;;;2.47;;
27758;SDS011;15148;48.972;12.794;2023-04-25T10:32:52;3.90;;;2.60;;
27758;SDS011;15148;48.972;12.794;2023-04-25T10:48:35;4.60;;;1.80;;
27758;SDS011;15148;48.972;12.794;2023-04-25T10:53:36;2.22;;;2.05;;
27758;SDS011;15148;48.972;12.794;2023-04-25T10:58:42;2.55;;;2.35;;
27758;SDS011;15148;48.972;12.794;2023-04-25T11:03:45;3.13;;;2.83;;
27758;SDS011;15148;48.972;12.794;2023-04-25T11:08:51;2.97;;;2.78;;
27758;SDS011;15148;48.972;12.794;2023-04-25T11:13:54;3.55;;;3.22;;
27758;SDS011;15148;48.972;12.794;2023-04-25T11:18:57;3.33;;;3.03;;
27758;SDS011;15148;48.972;12.794;2023-04-25T11:23:59;3.63;;;3.13;;
27758;SDS011;15148;48.972;12.794;2023-04-25T11:29:01;4.28;;;3.20;;
27758;SDS011;15148;48.972;12.794;2023-04-25T11:34:04;3.63;;;3.33;;
27758;SDS011;15148;48.972;12.794;2023-04-25T11:39:06;11.38;;;9.43;;
27758;SDS011;15148;48.972;12.794;2023-04-25T11:44:08;3.75;;;3.42;;
27758;SDS011;15148;48.972;12.794;2023-04-25T11:49:10;3.55;;;2.65;;
27758;SDS011;15148;48.972;12.794;2023-04-25T11:54:12;2.60;;;2.40;;
27758;SDS011;15148;48.972;12.794;2023-04-25T11:59:14;1.90;;;1.80;;
27758;SDS011;15148;48.972;12.794;2023-04-25T12:09:28;2.90;;;2.55;;
27758;SDS011;15148;48.972;12.794;2023-04-25T12:14:32;2.90;;;2.70;;
27758;SDS011;15148;48.972;12.794;2023-04-25T12:19:36;2.67;;;2.47;;
27758;SDS011;15148;48.972;12.794;2023-04-25T12:24:44;2.40;;;2.20;;
27758;SDS011;15148;48.972;12.794;2023-04-25T12:29:53;3.45;;;2.03;;
27758;SDS011;15148;48.972;12.794;2023-04-25T12:34:56;1.83;;;1.73;;
27758;SDS011;15148;48.972;12.794;2023-04-25T12:39:57;2.55;;;1.95;;
27758;SDS011;15148;48.972;12.794;2023-04-25T12:44:59;2.55;;;1.90;;
27758;SDS011;15148;48.972;12.794;2023-04-25T12:50:01;1.42;;;1.33;;
27758;SDS011;15148;48.972;12.794;2023-04-25T12:55:03;2.00;;;1.58;;
27758;SDS011;15148;48.972;12.794;2023-04-25T13:00:05;1.95;;;1.85;;
27758;SDS011;15148;48.972;12.794;2023-04-25T13:05:10;1.85;;;1.70;;
27758;SDS011;15148;48.972;12.794;2023-04-25T13:10:12;1.90;;;1.80;;
27758;SDS011;15148;48.972;12.794;2023-04-25T13:15:14;2.05;;;1.85;;
27758;SDS011;15148;48.972;12.794;2023-04-25T13:20:18;3.33;;;2.30;;
27758;SDS011;15148;48.972;12.794;2023-04-25T13:25:23;2.00;;;1.90;;
27758;SDS011;15148;48.972;12.794;2023-04-25T13:30:25;2.83;;;2.20;;
27758;SDS011;15148;48.972;12.794;2023-04-25T13:35:27;2.20;;;2.00;;
27758;SDS011;15148;48.972;12.794;2023-04-25T13:40:28;3.42;;;2.70;;
27758;SDS011;15148;48.972;12.794;2023-04-25T13:45:30;2.30;;;2.10;;
27758;SDS011;15148;48.972;12.794;2023-04-25T13:50:34;2.83;;;2.30;;
27758;SDS011;15148;48.972;12.794;2023-04-25T13:55:36;2.05;;;1.95;;
27758;SDS011;15148;48.972;12.794;2023-04-25T14:00:38;3.58;;;2.47;;
27758;SDS011;15148;48.972;12.794;2023-04-25T14:05:44;3.58;;;2.47;;
27758;SDS011;15148;48.972;12.794;2023-04-25T14:10:46;5.57;;;2.50;;
27758;SDS011;15148;48.972;12.794;2023-04-25T14:15:48;2.58;;;2.38;;
27758;SDS011;15148;48.972;12.794;2023-04-25T14:20:51;3.30;;;2.35;;
27758;SDS011;15148;48.972;12.794;2023-04-25T14:25:53;2.45;;;2.05;;
27758;SDS011;15148;48.972;12.794;2023-04-25T14:30:55;2.50;;;2.10;;
27758;SDS011;15148;48.972;12.794;2023-04-25T14:35:57;2.33;;;2.10;;
27758;SDS011;15148;48.972;12.794;2023-04-25T14:40:59;3.60;;;2.22;;
27758;SDS011;15148;48.972;12.794;2023-04-25T14:46:00;4.07;;;2.55;;
27758;SDS011;15148;48.972;12.794;2023-04-25T14:51:03;2.78;;;2.53;;
27758;SDS011;15148;48.972;12.794;2023-04-25T14:56:05;3.55;;;2.20;;
27758;SDS011;15148;48.972;12.794;2023-04-25T15:01:08;2.28;;;2.00;;
27758;SDS011;15148;48.972;12.794;2023-04-25T15:06:10;1.83;;;1.67;;
27758;SDS011;15148;48.972;12.794;2023-04-25T15:11:12;2.95;;;2.30;;
27758;SDS011;15148;48.972;12.794;2023-04-25T15:16:14;2.95;;;1.90;;
27758;SDS011;15148;48.972;12.794;2023-04-25T15:21:16;3.63;;;2.00;;
27758;SDS011;15148;48.972;12.794;2023-04-25T15:26:18;2.72;;;2.30;;
27758;SDS011;15148;48.972;12.794;2023-04-25T15:31:20;2.83;;;1.73;;
27758;SDS011;15148;48.972;12.794;2023-04-25T15:36:23;2.47;;;1.83;;
27758;SDS011;15148;48.972;12.794;2023-04-25T15:41:25;7.32;;;5.25;;
27758;SDS011;15148;48.972;12.794;2023-04-25T15:46:27;2.95;;;2.72;;
27758;SDS011;15148;48.972;12.794;2023-04-25T15:51:31;3.85;;;1.80;;
27758;SDS011;15148;48.972;12.794;2023-04-25T15:56:34;2.58;;;1.67;;
27758;SDS011;15148;48.972;12.794;2023-04-25T16:01:36;3.08;;;1.70;;
27758;SDS011;15148;48.972;12.794;2023-04-25T16:06:38;2.30;;;1.90;;
27758;SDS011;15148;48.972;12.794;2023-04-25T16:11:40;2.30;;;1.75;;
27758;SDS011;15148;48.972;12.794;2023-04-25T16:16:42;1.60;;;1.45;;
27758;SDS011;15148;48.972;12.794;2023-04-25T16:21:45;1.45;;;1.25;;
27758;SDS011;15148;48.972;12.794;2023-04-25T16:26:47;1.20;;;1.10;;
27758;SDS011;15148;48.972;12.794;2023-04-25T16:31:49;1.17;;;1.00;;
27758;SDS011;15148;48.972;12.794;2023-04-25T16:36:51;1.52;;;1.25;;
27758;SDS011;15148;48.972;12.794;2023-04-25T16:41:56;1.52;;;1.30;;
27758;SDS011;15148;48.972;12.794;2023-04-25T16:46:58;4.93;;;1.35;;
27758;SDS011;15148;48.972;12.794;2023-04-25T16:52:00;1.83;;;1.42;;
27758;SDS011;15148;48.972;12.794;2023-04-25T16:57:02;1.23;;;1.13;;
27758;SDS011;15148;48.972;12.794;2023-04-25T17:02:06;2.13;;;2.00;;
27758;SDS011;15148;48.972;12.794;2023-04-25T17:07:13;1.87;;;1.67;;
27758;SDS011;15148;48.972;12.794;2023-04-25T17:12:16;2.38;;;1.48;;
27758;SDS011;15148;48.972;12.794;2023-04-25T17:17:19;1.42;;;1.30;;
27758;SDS011;15148;48.972;12.794;2023-04-25T17:22:22;2.30;;;1.67;;
27758;SDS011;15148;48.972;12.794;2023-04-25T17:27:24;1.88;;;1.50;;
27758;SDS011;15148;48.972;12.794;2023-04-25T17:32:26;1.83;;;1.67;;
27758;SDS011;15148;48.972;12.794;2023-04-25T17:37:28;3.97;;;1.50;;
27758;SDS011;15148;48.972;12.794;2023-04-25T17:42:31;2.10;;;1.60;;
27758;SDS011;15148;48.972;12.794;2023-04-25T17:47:33;3.08;;;1.42;;
27758;SDS011;15148;48.972;12.794;2023-04-25T17:52:35;2.65;;;1.58;;
27758;SDS011;15148;48.972;12.794;2023-04-25T17:57:38;1.70;;;1.58;;
27758;SDS011;15148;48.972;12.794;2023-04-25T18:02:40;1.48;;;1.38;;
27758;SDS011;15148;48.972;12.794;2023-04-25T18:07:42;1.77;;;1.38;;
27758;SDS011;15148;48.972;12.794;2023-04-25T18:12:44;2.30;;;2.10;;
27758;SDS011;15148;48.972;12.794;2023-04-25T18:17:46;1.90;;;1.80;;
27758;SDS011;15148;48.972;12.794;2023-04-25T18:22:48;1.65;;;1.55;;
27758;SDS011;15148;48.972;12.794;2023-04-25T18:27:50;2.17;;;1.70;;
27758;SDS011;15148;48.972;12.794;2023-04-25T18:32:53;2.72;;;1.90;;
27758;SDS011;15148;48.972;12.794;2023-04-25T18:37:56;2.20;;;2.00;;
27758;SDS011;15148;48.972;12.794;2023-04-25T18:42:58;3.28;;;2.05;;
27758;SDS011;15148;48.972;12.794;2023-04-25T18:48:00;2.80;;;2.00;;
27758;SDS011;15148;48.972;12.794;2023-04-25T18:53:03;3.53;;;2.25;;
27758;SDS011;15148;48.972;12.794;2023-04-25T18:58:04;3.05;;;2.00;;
27758;SDS011;15148;48.972;12.794;2023-04-25T19:03:07;3.25;;;2.10;;
27758;SDS011;15148;48.972;12.794;2023-04-25T19:08:10;3.00;;;2.45;;
27758;SDS011;15148;48.972;12.794;2023-04-25T19:13:12;3.95;;;2.42;;
27758;SDS011;15148;48.972;12.794;2023-04-25T19:18:14;2.80;;;2.20;;
27758;SDS011;15148;48.972;12.794;2023-04-25T19:23:16;4.03;;;2.42;;
27758;SDS011;15148;48.972;12.794;2023-04-25T19:28:17;4.93;;;2.13;;
27758;SDS011;15148;48.972;12.794;2023-04-25T19:33:19;3.30;;;2.38;;
27758;SDS011;15148;48.972;12.794;2023-04-25T19:38:21;3.70;;;2.55;;
27758;SDS011;15148;48.972;12.794;2023-04-25T19:43:23;5.40;;;2.50;;
27758;SDS011;15148;48.972;12.794;2023-04-25T19:48:25;4.05;;;2.70;;
27758;SDS011;15148;48.972;12.794;2023-04-25T19:53:27;3.95;;;2.42;;
27758;SDS011;15148;48.972;12.794;2023-04-25T19:58:29;2.47;;;2.28;;
27758;SDS011;15148;48.972;12.794;2023-04-25T20:03:31;3.42;;;2.17;;
27758;SDS011;15148;48.972;12.794;2023-04-25T20:08:34;4.45;;;3.47;;
27758;SDS011;15148;48.972;12.794;2023-04-25T20:13:36;3.35;;;2.38;;
27758;SDS011;15148;48.972;12.794;2023-04-25T20:18:38;2.70;;;2.28;;
27758;SDS011;15148;48.972;12.794;2023-04-25T20:23:40;4.72;;;2.60;;
27758;SDS011;15148;48.972;12.794;2023-04-25T20:28:43;3.75;;;2.58;;
27758;SDS011;15148;48.972;12.794;2023-04-25T20:33:46;3.72;;;2.50;;
27758;SDS011;15148;48.972;12.794;2023-04-25T20:38:48;5.63;;;2.60;;
27758;SDS011;15148;48.972;12.794;2023-04-25T20:43:50;3.15;;;2.90;;
27758;SDS011;15148;48.972;12.794;2023-04-25T20:48:53;3.53;;;3.00;;
27758;SDS011;15148;48.972;12.794;2023-04-25T20:53:55;4.70;;;2.58;;
27758;SDS011;15148;48.972;12.794;2023-04-25T20:58:57;5.93;;;2.70;;
27758;SDS011;15148;48.972;12.794;2023-04-25T21:03:59;7.97;;;4.82;;
27758;SDS011;15148;48.972;12.794;2023-04-25T21:09:01;4.55;;;2.65;;
27758;SDS011;15148;48.972;12.794;2023-04-25T21:14:05;2.42;;;2.22;;
27758;SDS011;15148;48.972;12.794;2023-04-25T21:19:07;2.95;;;2.60;;
27758;SDS011;15148;48.972;12.794;2023-04-25T21:24:09;3.00;;;2.47;;
27758;SDS011;15148;48.972;12.794;2023-04-25T21:29:14;3.63;;;2.90;;
27758;SDS011;15148;48.972;12.794;2023-04-25T21:34:16;3.70;;;2.53;;
27758;SDS011;15148;48.972;12.794;2023-04-25T21:39:18;3.45;;;2.65;;
27758;SDS011;15148;48.972;12.794;2023-04-25T21:44:20;3.17;;;2.15;;
27758;SDS011;15148;48.972;12.794;2023-04-25T21:49:22;5.00;;;4.00;;
27758;SDS011;15148;48.972;12.794;2023-04-25T21:54:29;5.57;;;2.83;;
27758;SDS011;15148;48.972;12.794;2023-04-25T21:59:31;3.45;;;2.47;;
27758;SDS011;15148;48.972;12.794;2023-04-25T22:04:33;6.32;;;3.00;;
27758;SDS011;15148;48.972;12.794;2023-04-25T22:09:35;5.53;;;2.90;;
27758;SDS011;15148;48.972;12.794;2023-04-25T22:14:51;3.28;;;2.92;;
27758;SDS011;15148;48.972;12.794;2023-04-25T22:19:53;5.75;;;5.03;;
27758;SDS011;15148;48.972;12.794;2023-04-25T22:24:55;5.75;;;3.67;;
27758;SDS011;15148;48.972;12.794;2023-04-25T22:29:57;6.03;;;3.70;;
27758;SDS011;15148;48.972;12.794;2023-04-25T22:34:59;3.85;;;3.20;;
27758;SDS011;15148;48.972;12.794;2023-04-25T22:40:02;5.90;;;3.42;;
27758;SDS011;15148;48.972;12.794;2023-04-25T22:45:08;4.93;;;2.97;;
27758;SDS011;15148;48.972;12.794;2023-04-25T22:50:10;5.90;;;3.30;;
27758;SDS011;15148;48.972;12.794;2023-04-25T22:55:14;3.53;;;3.20;;
27758;SDS011;15148;48.972;12.794;2023-04-25T23:00:16;5.25;;;4.03;;
27758;SDS011;15148;48.972;12.794;2023-04-25T23:05:22;8.63;;;5.78;;
27758;SDS011;15148;48.972;12.794;2023-04-25T23:10:26;6.05;;;5.55;;
27758;SDS011;15148;48.972;12.794;2023-04-25T23:15:28;6.82;;;4.38;;
27758;SDS011;15148;48.972;12.794;2023-04-25T23:20:33;6.15;;;3.45;;
27758;SDS011;15148;48.972;12.794;2023-04-25T23:25:38;4.28;;;3.30;;
27758;SDS011;15148;48.972;12.794;2023-04-25T23:30:40;6.82;;;3.65;;
27758;SDS011;15148;48.972;12.794;2023-04-25T23:35:42;5.72;;;3.70;;
27758;SDS011;15148;48.972;12.794;2023-04-25T23:40:44;5.72;;;3.47;;
27758;SDS011;15148;48.972;12.794;2023-04-25T23:45:46;4.35;;;3.10;;
27758;SDS011;15148;48.972;12.794;2023-04-25T23:50:48;4.65;;;3.65;;
27758;SDS011;15148;48.972;12.794;2023-04-25T23:55:49;5.82;;;3.00;;
